createdAt,value
2023-05-16T00:00:15.732Z,47.34
2023-05-16T00:01:15.787Z,39.35
2023-05-16T00:02:15.885Z,38.68
2023-05-16T00:03:15.992Z,41.12
2023-05-16T00:04:16.008Z,38.60
2023-05-16T00:05:16.096Z,41.84
2023-05-16T00:06:16.100Z,35.80
2023-05-16T00:07:16.172Z,37.24
2023-05-16T00:08:16.233Z,39.68
2023-05-16T00:09:16.271Z,37.03
2023-05-16T00:10:16.345Z,39.81
2023-05-16T00:11:16.408Z,36.20
2023-05-16T00:12:16.465Z,36.63
2023-05-16T00:13:16.529Z,37.77
2023-05-16T00:14:16.584Z,40.39
2023-05-16T00:15:16.657Z,35.85
2023-05-16T00:17:05.484Z,25.00
2023-05-16T00:18:05.304Z,25.00
2023-05-16T00:19:05.279Z,25.00
2023-05-16T00:20:05.229Z,25.00
2023-05-16T00:21:05.211Z,25.00
2023-05-16T00:22:05.207Z,27.66
2023-05-16T00:23:05.191Z,25.70
2023-05-16T00:24:05.201Z,27.21
2023-05-16T00:25:05.169Z,28.10
2023-05-16T00:26:05.155Z,27.25
2023-05-16T00:27:05.146Z,25.00
2023-05-16T00:28:05.138Z,27.47
2023-05-16T00:29:05.117Z,34.45
2023-05-16T00:30:05.160Z,28.04
2023-05-16T00:31:05.107Z,31.75
2023-05-16T00:32:05.133Z,30.38
2023-05-16T00:33:05.101Z,32.95
2023-05-16T00:34:05.121Z,29.16
2023-05-16T00:35:05.062Z,31.38
2023-05-16T00:36:05.071Z,28.38
2023-05-16T00:37:05.063Z,33.91
2023-05-16T00:38:05.058Z,32.06
2023-05-16T00:39:05.065Z,25.52
2023-05-16T00:40:05.034Z,37.39
2023-05-16T00:41:05.035Z,26.86
2023-05-16T00:42:05.021Z,25.00
2023-05-16T00:43:05.015Z,28.83
2023-05-16T00:44:05.002Z,30.18
2023-05-16T00:45:05.036Z,27.54
2023-05-16T00:46:05.025Z,38.13
2023-05-16T00:47:04.977Z,25.96
2023-05-16T00:48:05.028Z,29.64
2023-05-16T00:49:04.984Z,32.44
2023-05-16T00:50:04.976Z,33.89
2023-05-16T00:51:04.952Z,30.39
2023-05-16T00:52:04.964Z,32.51
2023-05-16T00:53:04.929Z,29.19
2023-05-16T00:54:04.919Z,26.14
2023-05-16T00:55:04.917Z,31.36
2023-05-16T00:56:04.952Z,28.36
2023-05-16T00:57:05.008Z,35.49
2023-05-16T00:58:05.046Z,31.57
2023-05-16T00:59:05.095Z,33.46
2023-05-16T01:00:05.142Z,29.25
2023-05-16T01:01:05.274Z,25.00
2023-05-16T01:02:05.218Z,27.61
2023-05-16T01:03:05.335Z,30.28
2023-05-16T01:04:05.631Z,27.19
2023-05-16T01:05:05.404Z,30.34
2023-05-16T01:06:05.404Z,27.22
2023-05-16T01:07:05.440Z,35.33
2023-05-16T01:08:05.495Z,32.73
2023-05-16T01:09:05.541Z,27.38
2023-05-16T01:10:05.589Z,29.50
2023-05-16T01:11:05.619Z,33.61
2023-05-16T01:12:05.681Z,29.76
2023-05-16T01:13:05.732Z,32.91
2023-05-16T01:14:05.781Z,26.80
2023-05-16T01:15:05.835Z,33.03
2023-05-16T01:16:05.962Z,28.66
2023-05-16T01:17:05.937Z,31.60
2023-05-16T01:18:06.036Z,28.00
2023-05-16T01:19:06.138Z,31.93
2023-05-16T01:20:06.093Z,28.87
2023-05-16T01:21:06.151Z,28.91
2023-05-16T01:22:06.214Z,31.93
2023-05-16T01:23:06.264Z,34.43
2023-05-16T01:24:06.304Z,30.47
2023-05-16T01:25:06.357Z,28.84
2023-05-16T01:26:06.522Z,27.13
2023-05-16T01:27:06.462Z,29.39
2023-05-16T01:28:06.506Z,27.12
2023-05-16T01:29:06.558Z,27.66
2023-05-16T01:30:06.629Z,31.85
2023-05-16T01:31:06.716Z,35.08
2023-05-16T01:32:06.758Z,31.30
2023-05-16T01:33:06.808Z,29.24
2023-05-16T01:34:06.854Z,32.58
2023-05-16T01:35:06.888Z,29.05
2023-05-16T01:36:06.946Z,26.13
2023-05-16T01:37:06.998Z,37.85
2023-05-16T01:38:07.039Z,37.74
2023-05-16T01:39:07.081Z,29.77
2023-05-16T01:40:07.142Z,32.33
2023-05-16T01:41:07.205Z,33.61
2023-05-16T01:42:07.258Z,29.69
2023-05-16T01:43:07.293Z,30.03
2023-05-16T01:44:07.349Z,29.36
2023-05-16T01:45:07.398Z,38.23
2023-05-16T01:46:07.461Z,29.53
2023-05-16T01:47:07.621Z,32.58
2023-05-16T01:48:07.615Z,30.59
2023-05-16T01:49:07.609Z,29.05
2023-05-16T01:50:07.648Z,32.69
2023-05-16T01:51:07.697Z,36.24
2023-05-16T01:52:07.733Z,35.74
2023-05-16T01:53:07.806Z,27.21
2023-05-16T01:54:07.850Z,32.83
2023-05-16T01:55:07.912Z,34.58
2023-05-16T01:56:08.036Z,27.11
2023-05-16T01:57:08.044Z,31.66
2023-05-16T01:58:08.075Z,32.70
2023-05-16T01:59:08.118Z,30.51
2023-05-16T02:00:08.165Z,35.46
2023-05-16T02:01:08.254Z,32.35
2023-05-16T02:02:08.269Z,33.30
2023-05-16T02:03:08.360Z,34.61
2023-05-16T02:04:08.381Z,33.01
2023-05-16T02:05:08.411Z,34.39
2023-05-16T02:06:08.470Z,30.95
2023-05-16T02:07:08.504Z,31.77
2023-05-16T02:08:08.549Z,33.06
2023-05-16T02:09:08.594Z,30.83
2023-05-16T02:10:08.651Z,33.97
2023-05-16T02:11:08.671Z,32.55
2023-05-16T02:12:08.718Z,30.24
2023-05-16T02:13:08.776Z,33.59
2023-05-16T02:14:08.820Z,27.52
2023-05-16T02:15:08.889Z,34.16
2023-05-16T02:16:08.954Z,35.90
2023-05-16T02:17:09.016Z,33.51
2023-05-16T02:18:09.054Z,37.56
2023-05-16T02:19:09.058Z,35.28
2023-05-16T02:20:09.071Z,35.92
2023-05-16T02:21:09.109Z,40.69
2023-05-16T02:22:09.124Z,31.74
2023-05-16T02:23:09.142Z,32.90
2023-05-16T02:24:09.149Z,34.15
2023-05-16T02:25:09.185Z,34.22
2023-05-16T02:26:09.227Z,30.74
2023-05-16T02:27:09.246Z,36.08
2023-05-16T02:28:09.278Z,37.08
2023-05-16T02:29:09.300Z,28.88
2023-05-16T02:30:09.349Z,27.46
2023-05-16T02:31:09.446Z,33.95
2023-05-16T02:32:09.416Z,34.19
2023-05-16T02:33:09.520Z,33.21
2023-05-16T02:34:09.486Z,28.24
2023-05-16T02:35:09.510Z,28.26
2023-05-16T02:36:09.566Z,27.30
2023-05-16T02:37:10.734Z,27.44
2023-05-16T02:38:09.556Z,36.91
2023-05-16T02:39:09.533Z,37.61
2023-05-16T02:40:09.519Z,33.73
2023-05-16T02:41:09.502Z,38.10
2023-05-16T02:42:09.492Z,36.01
2023-05-16T02:43:09.478Z,34.73
2023-05-16T02:44:09.460Z,36.53
2023-05-16T02:45:09.444Z,30.32
2023-05-16T02:46:09.459Z,27.72
2023-05-16T02:47:09.420Z,35.59
2023-05-16T02:48:09.532Z,29.99
2023-05-16T02:49:09.408Z,30.99
2023-05-16T02:50:09.387Z,37.85
2023-05-16T02:51:09.374Z,36.87
2023-05-16T02:52:09.353Z,30.84
2023-05-16T02:53:09.342Z,32.37
2023-05-16T02:54:09.339Z,28.49
2023-05-16T02:55:23.898Z,34.22
2023-05-16T02:56:10.321Z,34.53
2023-05-16T02:57:09.300Z,34.83
2023-05-16T02:58:09.286Z,33.12
2023-05-16T02:59:09.291Z,26.86
2023-05-16T03:00:09.272Z,33.19
2023-05-16T03:01:09.350Z,30.31
2023-05-16T03:02:09.336Z,30.67
2023-05-16T03:03:09.333Z,31.72
2023-05-16T03:04:09.258Z,28.44
2023-05-16T03:05:09.219Z,26.82
2023-05-16T03:06:09.270Z,35.95
2023-05-16T03:07:09.295Z,28.89
2023-05-16T03:08:09.321Z,31.37
2023-05-16T03:09:09.384Z,34.10
2023-05-16T03:10:09.443Z,32.54
2023-05-16T03:11:09.455Z,26.39
2023-05-16T03:12:09.478Z,34.32
2023-05-16T03:13:09.516Z,29.30
2023-05-16T03:14:09.531Z,34.37
2023-05-16T03:15:09.626Z,34.42
2023-05-16T03:16:09.643Z,30.96
2023-05-16T03:17:09.584Z,30.97
2023-05-16T03:18:09.659Z,26.27
2023-05-16T03:19:09.657Z,32.94
2023-05-16T03:20:09.668Z,30.14
2023-05-16T03:21:09.698Z,33.40
2023-05-16T03:22:09.725Z,27.57
2023-05-16T03:23:09.748Z,35.18
2023-05-16T03:24:09.834Z,37.92
2023-05-16T03:25:09.818Z,27.11
2023-05-16T03:26:09.867Z,37.68
2023-05-16T03:27:09.900Z,31.58
2023-05-16T03:28:09.923Z,32.62
2023-05-16T03:29:09.940Z,39.34
2023-05-16T03:30:09.943Z,39.19
2023-05-16T03:31:10.040Z,29.62
2023-05-16T03:32:10.074Z,30.93
2023-05-16T03:33:10.104Z,32.50
2023-05-16T03:34:10.044Z,32.54
2023-05-16T03:35:10.039Z,31.02
2023-05-16T03:36:10.073Z,32.93
2023-05-16T03:37:10.070Z,32.11
2023-05-16T03:38:10.106Z,32.40
2023-05-16T03:39:10.128Z,35.31
2023-05-16T03:40:10.136Z,33.93
2023-05-16T03:41:10.151Z,32.32
2023-05-16T03:42:10.170Z,30.06
2023-05-16T03:43:10.176Z,35.41
2023-05-16T03:44:10.213Z,31.85
2023-05-16T03:45:10.236Z,37.02
2023-05-16T03:46:10.345Z,35.50
2023-05-16T03:47:10.290Z,31.73
2023-05-16T03:48:10.354Z,34.77
2023-05-16T03:49:10.308Z,33.36
2023-05-16T03:50:10.321Z,29.35
2023-05-16T03:51:10.377Z,41.46
2023-05-16T03:52:10.401Z,38.11
2023-05-16T03:53:10.445Z,32.13
2023-05-16T03:54:10.458Z,40.28
2023-05-16T03:55:10.489Z,38.60
2023-05-16T03:56:10.526Z,28.93
2023-05-16T03:57:10.556Z,28.51
2023-05-16T03:58:10.551Z,30.67
2023-05-16T03:59:10.542Z,32.76
2023-05-16T04:00:10.547Z,28.72
2023-05-16T04:01:10.577Z,35.64
2023-05-16T04:02:10.627Z,35.75
2023-05-16T04:03:10.644Z,36.22
2023-05-16T04:04:10.622Z,34.81
2023-05-16T04:05:10.700Z,33.29
2023-05-16T04:06:10.734Z,35.13
2023-05-16T04:07:10.667Z,28.82
2023-05-16T04:08:10.681Z,35.20
2023-05-16T04:09:10.683Z,27.33
2023-05-16T04:10:10.682Z,31.18
2023-05-16T04:11:10.697Z,37.81
2023-05-16T04:12:10.680Z,36.57
2023-05-16T04:13:10.689Z,32.88
2023-05-16T04:14:10.751Z,33.41
2023-05-16T04:15:10.705Z,30.17
2023-05-16T04:16:10.760Z,31.51
2023-05-16T04:17:11.048Z,31.05
2023-05-16T04:18:10.930Z,30.11
2023-05-16T04:19:10.904Z,29.44
2023-05-16T04:20:10.874Z,35.30
2023-05-16T04:21:10.944Z,27.53
2023-05-16T04:22:10.926Z,32.70
2023-05-16T04:23:10.957Z,34.56
2023-05-16T04:24:10.965Z,33.77
2023-05-16T04:25:10.996Z,35.94
2023-05-16T04:26:11.018Z,33.10
2023-05-16T04:27:11.005Z,32.61
2023-05-16T04:28:11.002Z,33.31
2023-05-16T04:29:10.998Z,33.97
2023-05-16T04:30:10.979Z,31.26
2023-05-16T04:31:11.021Z,30.19
2023-05-16T04:32:10.965Z,29.97
2023-05-16T04:33:11.001Z,35.11
2023-05-16T04:34:10.924Z,33.75
2023-05-16T04:35:10.902Z,32.48
2023-05-16T04:36:10.905Z,29.20
2023-05-16T04:37:10.878Z,33.15
2023-05-16T04:38:10.882Z,30.23
2023-05-16T04:39:10.868Z,26.75
2023-05-16T04:40:10.866Z,33.67
2023-05-16T04:41:10.862Z,36.00
2023-05-16T04:42:10.853Z,32.67
2023-05-16T04:43:10.854Z,33.08
2023-05-16T04:44:10.857Z,35.60
2023-05-16T04:45:10.839Z,30.26
2023-05-16T04:46:10.856Z,28.11
2023-05-16T04:47:10.832Z,34.42
2023-05-16T04:48:10.901Z,37.83
2023-05-16T04:49:10.840Z,39.17
2023-05-16T04:50:10.839Z,31.21
2023-05-16T04:51:10.849Z,34.89
2023-05-16T04:52:10.864Z,29.01
2023-05-16T04:53:10.978Z,39.57
2023-05-16T04:54:10.896Z,34.67
2023-05-16T04:55:10.895Z,40.22
2023-05-16T04:56:10.900Z,41.13
2023-05-16T04:57:10.912Z,33.76
2023-05-16T04:58:10.935Z,31.14
2023-05-16T04:59:10.937Z,33.84
2023-05-16T05:00:10.929Z,29.58
2023-05-16T05:01:11.018Z,27.03
2023-05-16T05:02:11.013Z,34.02
2023-05-16T05:03:11.184Z,36.50
2023-05-16T05:04:11.026Z,33.66
2023-05-16T05:05:11.107Z,35.56
2023-05-16T05:06:11.066Z,41.56
2023-05-16T05:07:11.085Z,33.99
2023-05-16T05:08:11.104Z,34.22
2023-05-16T05:09:11.109Z,33.92
2023-05-16T05:10:11.123Z,29.11
2023-05-16T05:11:11.127Z,38.26
2023-05-16T05:12:11.120Z,38.40
2023-05-16T05:13:11.141Z,30.68
2023-05-16T05:14:11.092Z,37.04
2023-05-16T05:15:11.109Z,30.83
2023-05-16T05:16:11.101Z,33.94
2023-05-16T05:17:11.124Z,29.58
2023-05-16T05:18:11.252Z,39.29
2023-05-16T05:19:11.165Z,38.18
2023-05-16T05:20:11.084Z,42.65
2023-05-16T05:21:11.092Z,52.05
2023-05-16T05:22:11.066Z,26.39
2023-05-16T05:23:11.147Z,11.91
2023-05-16T05:24:11.052Z,7.90
2023-05-16T05:25:11.053Z,15.63
2023-05-16T05:26:11.069Z,15.80
2023-05-16T05:27:11.048Z,34.99
2023-05-16T05:28:11.065Z,47.73
2023-05-16T05:29:11.192Z,52.55
2023-05-16T05:30:11.132Z,57.14
2023-05-16T05:31:11.166Z,68.30
2023-05-16T05:32:11.226Z,56.69
2023-05-16T05:33:11.256Z,58.01
2023-05-16T05:34:12.199Z,58.31
2023-05-16T05:35:11.209Z,59.86
2023-05-16T05:36:11.226Z,61.58
2023-05-16T05:37:11.219Z,67.30
2023-05-16T05:38:11.227Z,73.63
2023-05-16T05:39:11.225Z,82.08
2023-05-16T05:40:11.220Z,84.24
2023-05-16T05:41:11.213Z,92.99
2023-05-16T05:42:11.200Z,97.75
2023-05-16T05:43:13.063Z,96.62
2023-05-16T05:44:11.184Z,107.41
2023-05-16T05:45:11.166Z,108.52
2023-05-16T05:46:11.274Z,118.68
2023-05-16T05:47:11.137Z,126.97
2023-05-16T05:48:11.199Z,130.64
2023-05-16T05:49:11.137Z,139.91
2023-05-16T05:50:11.175Z,147.11
2023-05-16T05:51:11.211Z,157.22
2023-05-16T05:52:12.029Z,161.74
2023-05-16T05:53:11.247Z,160.66
2023-05-16T05:54:11.258Z,170.30
2023-05-16T05:55:11.286Z,178.53
2023-05-16T05:56:11.289Z,184.20
2023-05-16T05:57:11.466Z,185.76
2023-05-16T05:58:11.397Z,198.14
2023-05-16T05:59:11.346Z,209.68
2023-05-16T06:00:11.351Z,217.23
2023-05-16T06:01:11.362Z,222.91
2023-05-16T06:02:11.417Z,231.46
2023-05-16T06:03:11.497Z,235.70
2023-05-16T06:04:11.410Z,243.32
2023-05-16T06:05:11.450Z,250.00
2023-05-16T06:06:13.076Z,249.72
2023-05-16T06:07:11.432Z,248.73
2023-05-16T06:08:11.446Z,247.85
2023-05-16T06:09:11.462Z,249.77
2023-05-16T06:10:11.494Z,248.64
2023-05-16T06:11:11.429Z,249.09
2023-05-16T06:12:11.400Z,250.57
2023-05-16T06:13:11.376Z,254.41
2023-05-16T06:14:11.352Z,259.93
2023-05-16T06:15:11.332Z,269.13
2023-05-16T06:16:12.049Z,251.23
2023-05-16T06:17:11.392Z,248.82
2023-05-16T06:18:22.214Z,250.00
2023-05-16T06:19:11.249Z,250.52
2023-05-16T06:20:11.184Z,252.07
2023-05-16T06:21:13.066Z,255.64
2023-05-16T06:22:11.125Z,261.61
2023-05-16T06:23:12.077Z,272.45
2023-05-16T06:24:11.059Z,257.62
2023-05-16T06:25:11.961Z,250.00
2023-05-16T06:26:11.006Z,246.48
2023-05-16T06:27:10.978Z,246.84
2023-05-16T06:28:10.947Z,247.13
2023-05-16T06:29:10.911Z,244.37
2023-05-16T06:30:10.899Z,240.31
2023-05-16T06:31:10.937Z,241.62
2023-05-16T06:32:13.213Z,243.51
2023-05-16T06:33:10.832Z,250.00
2023-05-16T06:34:10.775Z,248.30
2023-05-16T06:35:10.780Z,245.90
2023-05-16T06:36:10.725Z,249.61
2023-05-16T06:37:10.691Z,244.11
2023-05-16T06:38:10.672Z,243.66
2023-05-16T06:39:10.659Z,247.98
2023-05-16T06:40:10.630Z,248.17
2023-05-16T06:41:10.609Z,248.32
2023-05-16T06:42:10.600Z,248.04
2023-05-16T06:43:10.642Z,246.54
2023-05-16T06:44:10.561Z,245.90
2023-05-16T06:45:10.550Z,245.26
2023-05-16T06:46:10.565Z,243.95
2023-05-16T06:47:10.527Z,242.01
2023-05-16T06:48:10.509Z,243.29
2023-05-16T06:49:10.473Z,240.76
2023-05-16T06:50:10.444Z,241.27
2023-05-16T06:51:10.485Z,242.08
2023-05-16T06:52:10.531Z,241.64
2023-05-16T06:53:10.578Z,241.12
2023-05-16T06:54:10.612Z,240.48
2023-05-16T06:55:10.648Z,240.16
2023-05-16T06:56:10.701Z,237.70
2023-05-16T06:57:10.726Z,240.24
2023-05-16T06:58:10.749Z,238.76
2023-05-16T06:59:10.780Z,236.57
2023-05-16T07:00:10.822Z,236.41
2023-05-16T07:01:10.897Z,236.72
2023-05-16T07:02:10.933Z,232.71
2023-05-16T07:03:11.015Z,231.85
2023-05-16T07:04:11.074Z,232.50
2023-05-16T07:05:11.054Z,233.79
2023-05-16T07:06:11.072Z,229.99
2023-05-16T07:07:11.110Z,233.24
2023-05-16T07:08:11.156Z,233.19
2023-05-16T07:09:11.200Z,232.13
2023-05-16T07:10:11.259Z,232.25
2023-05-16T07:11:11.311Z,230.38
2023-05-16T07:12:14.129Z,231.73
2023-05-16T07:13:11.347Z,225.96
2023-05-16T07:14:11.324Z,225.99
2023-05-16T07:15:11.308Z,231.10
2023-05-16T07:16:11.621Z,229.17
2023-05-16T07:17:11.302Z,229.70
2023-05-16T07:18:12.183Z,227.82
2023-05-16T07:19:11.242Z,227.19
2023-05-16T07:20:11.210Z,229.01
2023-05-16T07:21:11.206Z,228.80
2023-05-16T07:22:11.183Z,228.25
2023-05-16T07:23:11.985Z,230.51
2023-05-16T07:24:11.139Z,164.60
2023-05-16T07:25:11.115Z,148.01
2023-05-16T07:26:11.125Z,123.67
2023-05-16T07:27:12.102Z,121.71
2023-05-16T07:28:12.049Z,111.10
2023-05-16T07:29:11.103Z,95.30
2023-05-16T07:30:11.099Z,86.25
2023-05-16T07:31:11.120Z,81.34
2023-05-16T07:32:11.463Z,75.21
2023-05-16T07:33:11.247Z,76.07
2023-05-16T07:34:11.180Z,75.46
2023-05-16T07:35:12.067Z,78.23
2023-05-16T07:36:17.010Z,75.47
2023-05-16T07:37:12.091Z,75.88
2023-05-16T07:38:11.092Z,77.17
2023-05-16T07:39:11.109Z,74.94
2023-05-16T07:40:11.098Z,53.37
2023-05-16T07:41:11.111Z,58.15
2023-05-16T07:42:11.123Z,53.04
2023-05-16T07:43:11.121Z,53.06
2023-05-16T07:44:11.113Z,67.75
2023-05-16T07:45:12.098Z,68.60
2023-05-16T07:46:11.169Z,71.00
2023-05-16T07:47:11.116Z,74.89
2023-05-16T07:48:11.126Z,76.98
2023-05-16T07:49:11.098Z,68.19
2023-05-16T07:50:11.099Z,67.93
2023-05-16T07:51:11.078Z,68.95
2023-05-16T07:52:11.116Z,67.77
2023-05-16T07:53:11.073Z,67.99
2023-05-16T07:54:11.062Z,67.52
2023-05-16T07:55:11.046Z,70.43
2023-05-16T07:56:11.058Z,67.89
2023-05-16T07:57:11.050Z,61.09
2023-05-16T07:58:11.046Z,58.47
2023-05-16T07:59:11.079Z,63.23
2023-05-16T08:00:11.048Z,64.81
2023-05-16T08:01:11.078Z,65.62
2023-05-16T08:02:11.134Z,67.12
2023-05-16T08:03:11.214Z,62.49
2023-05-16T08:04:11.111Z,63.53
2023-05-16T08:05:11.244Z,59.13
2023-05-16T08:06:11.262Z,57.43
2023-05-16T08:07:11.162Z,63.38
2023-05-16T08:08:11.172Z,61.23
2023-05-16T08:09:11.188Z,62.89
2023-05-16T08:10:13.293Z,59.59
2023-05-16T08:11:11.215Z,56.01
2023-05-16T08:12:12.064Z,55.76
2023-05-16T08:13:11.243Z,63.89
2023-05-16T08:14:11.231Z,71.49
2023-05-16T08:15:11.269Z,69.32
2023-05-16T08:16:11.285Z,71.97
2023-05-16T08:17:11.227Z,72.48
2023-05-16T08:18:11.224Z,74.31
2023-05-16T08:19:11.280Z,77.07
2023-05-16T08:20:17.039Z,79.21
2023-05-16T08:21:11.203Z,72.61
2023-05-16T08:22:11.219Z,74.13
2023-05-16T08:23:11.126Z,77.28
2023-05-16T08:24:11.138Z,79.29
2023-05-16T08:25:11.085Z,86.65
2023-05-16T08:26:11.998Z,85.60
2023-05-16T08:27:11.035Z,90.39
2023-05-16T08:28:11.023Z,96.16
2023-05-16T08:29:10.997Z,93.58
2023-05-16T08:30:10.970Z,93.06
2023-05-16T08:31:11.009Z,93.14
2023-05-16T08:32:11.581Z,94.98
2023-05-16T08:33:11.010Z,103.38
2023-05-16T08:34:10.872Z,102.45
2023-05-16T08:35:10.836Z,102.83
2023-05-16T08:36:10.812Z,103.66
2023-05-16T08:37:11.588Z,106.31
2023-05-16T08:38:10.762Z,113.13
2023-05-16T08:39:10.712Z,123.37
2023-05-16T08:40:10.815Z,127.78
2023-05-16T08:41:10.635Z,127.64
2023-05-16T08:42:10.608Z,132.61
2023-05-16T08:43:10.562Z,132.92
2023-05-16T08:44:11.103Z,133.88
2023-05-16T08:45:11.551Z,133.19
2023-05-16T08:46:10.537Z,135.15
2023-05-16T08:47:10.642Z,139.28
2023-05-16T08:48:10.788Z,145.41
2023-05-16T08:49:10.508Z,156.77
2023-05-16T08:50:10.521Z,158.38
2023-05-16T08:51:10.453Z,162.99
2023-05-16T08:52:25.082Z,164.97
2023-05-16T08:53:10.388Z,165.57
2023-05-16T08:54:10.340Z,167.20
2023-05-16T08:55:12.190Z,169.80
2023-05-16T08:56:10.290Z,165.70
2023-05-16T08:57:10.231Z,168.58
2023-05-16T08:58:10.236Z,173.38
2023-05-16T08:59:13.243Z,181.53
2023-05-16T09:00:10.113Z,193.13
2023-05-16T09:01:10.187Z,192.19
2023-05-16T09:02:11.656Z,196.44
2023-05-16T09:03:10.024Z,203.04
2023-05-16T09:04:10.632Z,205.06
2023-05-16T09:05:09.947Z,205.36
2023-05-16T09:06:09.917Z,208.29
2023-05-16T09:07:09.978Z,209.48
2023-05-16T09:08:09.821Z,212.75
2023-05-16T09:09:09.802Z,216.38
2023-05-16T09:10:09.733Z,217.00
2023-05-16T09:11:09.702Z,223.80
2023-05-16T09:12:11.695Z,223.45
2023-05-16T09:13:09.631Z,225.86
2023-05-16T09:14:09.597Z,225.63
2023-05-16T09:16:09.592Z,231.21
2023-05-16T09:17:12.326Z,232.24
2023-05-16T09:18:10.599Z,231.37
2023-05-16T09:19:09.559Z,232.93
2023-05-16T09:20:09.498Z,235.21
2023-05-16T09:21:09.462Z,240.80
2023-05-16T09:22:09.440Z,245.96
2023-05-16T09:23:10.121Z,250.00
2023-05-16T09:24:09.582Z,250.27
2023-05-16T09:25:18.312Z,250.26
2023-05-16T09:26:10.594Z,250.41
2023-05-16T09:27:09.521Z,252.18
2023-05-16T09:28:09.484Z,250.71
2023-05-16T09:29:09.450Z,252.41
2023-05-16T09:30:09.420Z,255.00
2023-05-16T09:31:09.436Z,259.45
2023-05-16T09:32:09.329Z,270.82
2023-05-16T09:33:20.132Z,252.31
2023-05-16T09:34:11.153Z,252.79
2023-05-16T09:35:09.241Z,253.89
2023-05-16T09:36:09.168Z,255.13
2023-05-16T09:37:09.127Z,256.25
2023-05-16T09:38:09.070Z,260.19
2023-05-16T09:39:11.600Z,249.44
2023-05-16T09:40:09.289Z,247.39
2023-05-16T09:41:09.249Z,247.89
2023-05-16T09:42:09.231Z,248.12
2023-05-16T09:43:09.166Z,248.85
2023-05-16T09:44:09.136Z,249.89
2023-05-16T09:45:09.606Z,252.63
2023-05-16T09:46:09.124Z,248.38
2023-05-16T09:47:09.112Z,249.99
2023-05-16T09:48:09.230Z,252.65
2023-05-16T09:49:09.141Z,258.76
2023-05-16T09:50:09.176Z,264.70
2023-05-16T09:51:09.673Z,250.00
2023-05-16T09:52:09.141Z,250.27
2023-05-16T09:53:09.153Z,250.82
2023-05-16T09:54:09.197Z,252.73
2023-05-16T09:55:10.024Z,254.92
2023-05-16T09:56:09.258Z,260.23
2023-05-16T09:57:14.121Z,250.57
2023-05-16T09:58:09.149Z,250.82
2023-05-16T09:59:09.098Z,251.11
2023-05-16T10:00:09.062Z,254.43
2023-05-16T10:01:09.032Z,260.11
2023-05-16T10:02:08.995Z,268.35
2023-05-16T10:03:09.003Z,278.27
2023-05-16T10:04:08.937Z,265.56
2023-05-16T10:05:08.833Z,250.00
2023-05-16T10:06:08.834Z,249.19
2023-05-16T10:07:08.749Z,250.39
2023-05-16T10:08:08.763Z,248.99
2023-05-16T10:09:08.787Z,249.80
2023-05-16T10:10:08.807Z,248.00
2023-05-16T10:11:08.828Z,246.81
2023-05-16T10:12:08.837Z,245.20
2023-05-16T10:13:08.911Z,245.48
2023-05-16T10:14:08.900Z,244.53
2023-05-16T10:15:08.937Z,244.64
2023-05-16T10:16:08.961Z,243.65
2023-05-16T10:17:08.989Z,242.96
2023-05-16T10:18:08.982Z,241.64
2023-05-16T10:19:08.997Z,242.56
2023-05-16T10:20:09.005Z,241.03
2023-05-16T10:21:11.222Z,241.16
2023-05-16T10:22:08.931Z,241.51
2023-05-16T10:23:08.883Z,241.13
2023-05-16T10:24:08.844Z,241.22
2023-05-16T10:25:08.810Z,241.49
2023-05-16T10:26:08.800Z,239.95
2023-05-16T10:27:08.855Z,238.65
2023-05-16T10:28:08.722Z,241.05
2023-05-16T10:29:08.722Z,240.03
2023-05-16T10:30:08.659Z,238.65
2023-05-16T10:31:08.636Z,238.30
2023-05-16T10:32:08.618Z,237.71
2023-05-16T10:33:08.597Z,235.29
2023-05-16T10:34:08.529Z,235.66
2023-05-16T10:35:08.497Z,234.49
2023-05-16T10:36:08.482Z,234.97
2023-05-16T10:37:08.441Z,232.62
2023-05-16T10:38:08.396Z,234.75
2023-05-16T10:39:08.376Z,233.97
2023-05-16T10:40:08.372Z,234.05
2023-05-16T10:41:08.329Z,234.08
2023-05-16T10:42:08.267Z,233.99
2023-05-16T10:43:08.255Z,232.45
2023-05-16T10:44:08.214Z,231.61
2023-05-16T10:45:08.250Z,230.85
2023-05-16T10:46:08.182Z,231.01
2023-05-16T10:47:08.118Z,230.50
2023-05-16T10:48:08.100Z,229.15
2023-05-16T10:49:08.035Z,229.74
2023-05-16T10:50:08.003Z,228.62
2023-05-16T10:51:07.969Z,228.39
2023-05-16T10:52:07.963Z,228.46
2023-05-16T10:53:07.881Z,228.55
2023-05-16T10:54:07.844Z,227.73
2023-05-16T10:55:07.828Z,226.78
2023-05-16T10:56:07.788Z,226.51
2023-05-16T10:57:07.778Z,226.39
2023-05-16T10:58:07.732Z,225.28
2023-05-16T10:59:08.624Z,224.99
2023-05-16T11:00:07.656Z,223.07
2023-05-16T11:01:07.835Z,223.37
2023-05-16T11:02:07.675Z,224.13
2023-05-16T11:03:08.250Z,221.86
2023-05-16T11:04:07.547Z,222.75
2023-05-16T11:05:07.506Z,221.33
2023-05-16T11:06:07.468Z,221.36
2023-05-16T11:07:07.675Z,221.95
2023-05-16T11:08:07.410Z,220.09
2023-05-16T11:09:07.392Z,220.37
2023-05-16T11:10:07.399Z,220.46
2023-05-16T11:11:07.406Z,218.80
2023-05-16T11:12:07.427Z,219.73
2023-05-16T11:13:07.431Z,218.95
2023-05-16T11:14:07.431Z,216.56
2023-05-16T11:15:07.492Z,218.89
2023-05-16T11:16:07.459Z,218.48
2023-05-16T11:17:07.626Z,216.54
2023-05-16T11:18:07.531Z,216.60
2023-05-16T11:19:07.528Z,216.76
2023-05-16T11:20:07.514Z,217.09
2023-05-16T11:21:07.503Z,215.00
2023-05-16T11:22:07.506Z,215.88
2023-05-16T11:23:07.514Z,214.78
2023-05-16T11:24:07.530Z,214.62
2023-05-16T11:25:07.551Z,212.72
2023-05-16T11:26:07.582Z,214.24
2023-05-16T11:27:07.556Z,213.95
2023-05-16T11:28:07.569Z,213.54
2023-05-16T11:29:07.579Z,214.04
2023-05-16T11:30:07.594Z,213.48
2023-05-16T11:31:07.697Z,212.82
2023-05-16T11:32:07.624Z,212.75
2023-05-16T11:33:07.692Z,212.27
2023-05-16T11:34:07.649Z,212.06
2023-05-16T11:35:07.656Z,211.12
2023-05-16T11:37:07.662Z,211.42
2023-05-16T11:38:07.600Z,211.80
2023-05-16T11:39:07.615Z,210.80
2023-05-16T11:40:07.584Z,210.87
2023-05-16T11:41:07.517Z,210.51
2023-05-16T11:42:07.489Z,211.50
2023-05-16T11:43:07.655Z,209.34
2023-05-16T11:44:07.437Z,211.04
2023-05-16T11:45:07.401Z,208.21
2023-05-16T11:46:07.413Z,208.85
2023-05-16T11:47:07.382Z,208.43
2023-05-16T11:48:07.337Z,208.65
2023-05-16T11:49:07.317Z,208.77
2023-05-16T11:50:07.280Z,208.91
2023-05-16T11:51:07.244Z,208.69
2023-05-16T11:52:07.220Z,207.99
2023-05-16T11:53:08.136Z,207.49
2023-05-16T11:54:07.133Z,207.45
2023-05-16T11:55:07.108Z,206.76
2023-05-16T11:56:07.109Z,206.54
2023-05-16T11:57:07.073Z,207.75
2023-05-16T11:58:07.033Z,206.88
2023-05-16T11:59:06.995Z,205.39
2023-05-16T12:00:06.969Z,206.09
2023-05-16T12:01:06.979Z,204.59
2023-05-16T12:02:06.988Z,208.08
2023-05-16T12:03:07.094Z,204.58
2023-05-16T12:04:07.121Z,205.52
2023-05-16T12:05:07.148Z,206.14
2023-05-16T12:06:07.062Z,204.34
2023-05-16T12:07:07.073Z,207.09
2023-05-16T12:08:07.108Z,205.58
2023-05-16T12:09:07.123Z,206.08
2023-05-16T12:10:07.144Z,203.44
2023-05-16T12:11:07.153Z,205.31
2023-05-16T12:12:07.170Z,206.43
2023-05-16T12:13:07.186Z,204.07
2023-05-16T12:14:07.220Z,203.32
2023-05-16T12:15:07.290Z,203.41
2023-05-16T12:16:08.216Z,203.53
2023-05-16T12:17:07.198Z,203.44
2023-05-16T12:18:07.192Z,203.62
2023-05-16T12:19:07.151Z,202.40
2023-05-16T12:20:07.071Z,202.26
2023-05-16T12:21:07.055Z,203.49
2023-05-16T12:22:07.036Z,203.08
2023-05-16T12:23:07.656Z,202.46
2023-05-16T12:24:06.961Z,201.49
2023-05-16T12:25:06.937Z,202.51
2023-05-16T12:26:06.918Z,203.51
2023-05-16T12:27:06.888Z,202.55
2023-05-16T12:28:06.860Z,200.12
2023-05-16T12:29:06.847Z,201.70
2023-05-16T12:30:06.813Z,202.52
2023-05-16T12:31:13.282Z,201.32
2023-05-16T12:32:06.792Z,201.45
2023-05-16T12:33:08.228Z,201.37
2023-05-16T12:34:06.697Z,200.55
2023-05-16T12:35:06.666Z,199.14
2023-05-16T12:36:06.636Z,200.25
2023-05-16T12:37:06.792Z,197.68
2023-05-16T12:38:06.597Z,200.68
2023-05-16T12:39:06.997Z,197.95
2023-05-16T12:40:06.533Z,199.17
2023-05-16T12:41:06.509Z,198.26
2023-05-16T12:42:06.482Z,196.03
2023-05-16T12:43:06.449Z,196.82
2023-05-16T12:44:06.425Z,195.84